Time;durP1;ratioP1;P1;durP2;ratioP2;P2;SDS_P1;SDS_P2;PMS_P1;PMS_P2;Temp;Humidity;BMP_temperature;BMP_pressure;BME280_temperature;BME280_humidity;BME280_pressure;Samples;Min_cycle;Max_cycle;Signal;HPM_P1;HPM_P2
2023/04/27 00:01:13;;;;;;;3.72;2.10;;;;;;;8.23;50.63;92438.28;5093069;28;20047;-79
2023/04/27 00:03:40;;;;;;;4.78;2.15;;;;;;;8.20;50.84;92442.19;5094611;28;20027;-79
2023/04/27 00:06:07;;;;;;;3.63;1.85;;;;;;;8.15;51.20;92439.63;5093043;28;20091;-78
2023/04/27 00:08:33;;;;;;;4.15;2.20;;;;;;;8.13;51.55;92442.50;5095778;28;20032;-78
2023/04/27 00:10:59;;;;;;;4.88;2.10;;;;;;;8.10;52.06;92437.81;5094711;28;20149;-79
2023/04/27 00:13:25;;;;;;;4.22;2.03;;;;;;;8.07;52.02;92435.75;5092721;28;20035;-79
2023/04/27 00:15:51;;;;;;;4.07;2.10;;;;;;;8.06;51.68;92438.63;5091776;28;20036;-79
2023/04/27 00:18:18;;;;;;;7.00;2.40;;;;;;;8.03;51.69;92434.75;5095605;28;20028;-79
2023/04/27 00:20:43;;;;;;;3.78;2.00;;;;;;;8.04;51.26;92432.94;5094553;28;20044;-79
2023/04/27 00:23:09;;;;;;;3.90;2.00;;;;;;;8.02;51.60;92430.59;5091474;28;20131;-78
2023/04/27 00:25:35;;;;;;;4.45;2.28;;;;;;;8.04;51.77;92430.31;5075080;28;20036;-79
2023/04/27 00:28:01;;;;;;;5.07;2.20;;;;;;;8.01;51.88;92433.47;5077818;28;20036;-79
2023/04/27 00:30:26;;;;;;;5.35;2.30;;;;;;;8.00;51.62;92435.28;5093250;28;20404;-79
2023/04/27 00:32:52;;;;;;;4.38;2.17;;;;;;;7.99;51.78;92425.91;5077543;28;20028;-79
2023/04/27 00:35:18;;;;;;;4.97;2.28;;;;;;;7.98;52.27;92424.34;5094075;28;20051;-79
2023/04/27 00:37:43;;;;;;;5.78;2.30;;;;;;;7.97;52.56;92422.00;5093709;28;20031;-79
2023/04/27 00:40:09;;;;;;;8.30;2.80;;;;;;;7.95;53.34;92414.47;5091361;28;20048;-79
2023/04/27 00:42:35;;;;;;;5.00;2.88;;;;;;;7.94;53.77;92418.13;5085948;28;20028;-79
2023/04/27 00:45:02;;;;;;;6.47;3.05;;;;;;;7.95;53.81;92418.91;5077646;28;20039;-79
2023/04/27 00:47:29;;;;;;;7.70;3.83;;;;;;;7.91;54.55;92416.06;5075997;28;20145;-79
2023/04/27 00:49:55;;;;;;;7.78;3.92;;;;;;;7.90;55.25;92411.88;5076096;28;20401;-79
2023/04/27 00:52:24;;;;;;;6.95;4.00;;;;;;;7.87;55.52;92408.00;5093810;28;20024;-79
2023/04/27 00:54:51;;;;;;;6.45;3.97;;;;;;;7.87;56.02;92418.44;5095342;28;20035;-79
2023/04/27 00:57:19;;;;;;;6.55;3.63;;;;;;;7.86;56.01;92405.69;5094284;28;20561;-78
2023/04/27 00:59:45;;;;;;;6.90;4.05;;;;;;;7.83;56.16;92409.59;5091157;28;20035;-79
2023/04/27 01:02:12;;;;;;;7.47;3.70;;;;;;;7.83;55.78;92416.63;5092352;28;20036;-78
2023/04/27 01:04:38;;;;;;;7.57;3.67;;;;;;;7.81;55.89;92413.50;5075594;28;20040;-78
2023/04/27 01:07:04;;;;;;;4.82;2.70;;;;;;;7.77;55.32;92409.88;5093159;28;20059;-77
2023/04/27 01:09:30;;;;;;;5.72;2.90;;;;;;;7.77;54.43;92407.28;5094078;28;20034;-78
2023/04/27 01:11:57;;;;;;;10.38;3.28;;;;;;;7.79;54.92;92413.00;5075462;28;20087;-78
2023/04/27 01:14:22;;;;;;;6.10;3.13;;;;;;;7.76;55.03;92406.50;5044549;28;20560;-79
2023/04/27 01:16:50;;;;;;;6.43;3.50;;;;;;;7.70;55.37;92403.16;5093888;28;20488;-78
2023/04/27 01:19:16;;;;;;;9.63;4.18;;;;;;;7.69;56.05;92414.63;5093861;28;20024;-79
2023/04/27 01:21:42;;;;;;;9.07;4.03;;;;;;;7.69;56.71;92417.22;5077423;28;20463;-78
2023/04/27 01:24:08;;;;;;;9.75;4.63;;;;;;;7.66;57.84;92412.56;5091020;28;20048;-79
2023/04/27 01:26:36;;;;;;;7.35;4.15;;;;;;;7.68;57.49;92410.47;5095227;28;20118;-79
2023/04/27 01:29:02;;;;;;;7.97;4.07;;;;;;;7.67;57.65;92419.31;5093515;28;20096;-79
2023/04/27 01:31:27;;;;;;;9.57;4.25;;;;;;;7.67;58.11;92424.53;5098131;28;20036;-78
2023/04/27 01:33:54;;;;;;;7.65;4.55;;;;;;;7.64;58.23;92417.25;5099267;28;20038;-78
2023/04/27 01:36:19;;;;;;;7.20;4.40;;;;;;;7.63;58.43;92422.72;5102732;28;20028;-78
2023/04/27 01:38:45;;;;;;;7.72;4.45;;;;;;;7.59;58.56;92416.50;5098706;28;20165;-79
2023/04/27 01:41:11;;;;;;;6.88;3.67;;;;;;;7.59;58.72;92419.09;5093961;28;20049;-78
2023/04/27 01:43:37;;;;;;;6.90;4.00;;;;;;;7.57;58.10;92423.84;5090226;28;20036;-78
2023/04/27 01:46:08;;;;;;;7.72;3.95;;;;;;;7.56;57.82;92423.03;5092364;28;20044;-78
2023/04/27 01:48:34;;;;;;;7.35;4.03;;;;;;;7.47;58.14;92414.22;5092644;28;20531;-78
2023/04/27 01:51:00;;;;;;;8.38;4.22;;;;;;;7.53;58.42;92428.00;5091957;28;20437;-78
2023/04/27 01:53:26;;;;;;;7.25;4.22;;;;;;;7.51;58.43;92426.44;5097940;28;20044;-79
2023/04/27 01:55:52;;;;;;;7.13;4.25;;;;;;;7.49;59.42;92432.97;5080015;28;20074;-78
2023/04/27 01:58:18;;;;;;;7.70;4.30;;;;;;;7.46;59.45;92430.91;5094658;28;20032;-78
2023/04/27 02:00:44;;;;;;;9.07;4.20;;;;;;;7.44;59.22;92436.38;5097298;28;20110;-78
2023/04/27 02:03:09;;;;;;;8.23;4.10;;;;;;;7.43;59.41;92429.63;5079908;28;20459;-79
2023/04/27 02:05:36;;;;;;;7.55;4.25;;;;;;;7.42;59.71;92430.66;5096681;28;20036;-79
2023/04/27 02:08:02;;;;;;;7.25;4.60;;;;;;;7.39;59.70;92439.00;5096962;28;20385;-79
2023/04/27 02:10:27;;;;;;;9.85;4.80;;;;;;;7.40;59.61;92439.78;5061834;28;20017;-79
2023/04/27 02:12:56;;;;;;;8.35;4.57;;;;;;;7.40;59.96;92445.00;5096433;28;20491;-79
2023/04/27 02:15:21;;;;;;;7.68;4.32;;;;;;;7.38;59.94;92444.47;5081728;28;20036;-79
2023/04/27 02:17:47;;;;;;;8.80;5.18;;;;;;;7.38;61.00;92441.88;5086005;28;20042;-79
2023/04/27 02:20:13;;;;;;;9.40;5.63;;;;;;;7.37;62.63;92443.69;5095174;28;20040;-79
2023/04/27 02:22:43;;;;;;;9.38;5.43;;;;;;;7.34;62.44;92446.06;5078975;28;20105;-79
2023/04/27 02:25:13;;;;;;;8.88;5.40;;;;;;;7.29;62.66;92442.44;5077027;28;20051;-79
2023/04/27 02:27:42;;;;;;;9.32;5.70;;;;;;;7.30;63.12;92446.59;5074673;28;20019;-78
2023/04/27 02:30:08;;;;;;;11.63;6.35;;;;;;;7.32;63.39;92451.53;5078733;28;20100;-78
2023/04/27 02:32:34;;;;;;;12.80;6.20;;;;;;;7.32;64.90;92450.75;5095892;28;20043;-78
2023/04/27 02:35:01;;;;;;;10.88;5.45;;;;;;;7.29;63.91;92450.25;5096674;28;20032;-78
2023/04/27 02:37:28;;;;;;;8.52;5.20;;;;;;;7.27;63.11;92454.94;5077850;28;20028;-78
2023/04/27 02:39:54;;;;;;;13.30;5.53;;;;;;;7.25;63.57;92454.44;5079762;28;20581;-78
2023/04/27 02:42:19;;;;;;;8.77;5.60;;;;;;;7.25;64.60;92453.63;5074823;28;20111;-78
2023/04/27 02:44:45;;;;;;;9.93;5.65;;;;;;;7.23;64.58;92456.50;5096502;28;20466;-79
2023/04/27 02:47:11;;;;;;;13.35;5.95;;;;;;;7.23;64.55;92451.31;5095482;28;20032;-79
2023/04/27 02:49:37;;;;;;;9.85;6.32;;;;;;;7.22;64.99;92452.34;5095807;28;20397;-79
2023/04/27 02:52:03;;;;;;;11.35;5.60;;;;;;;7.21;65.78;92450.03;5078717;28;20032;-79
2023/04/27 02:54:29;;;;;;;11.10;6.03;;;;;;;7.20;65.62;92445.84;5095971;28;20047;-79
2023/04/27 02:56:55;;;;;;;12.43;6.18;;;;;;;7.15;66.15;92441.44;5079143;28;20404;-78
2023/04/27 02:59:20;;;;;;;10.48;6.10;;;;;;;7.17;66.01;92444.56;5094975;28;20036;-79
2023/04/27 03:01:46;;;;;;;11.43;5.82;;;;;;;7.13;66.47;92450.56;5078712;28;20077;-78
2023/04/27 03:04:13;;;;;;;10.80;6.65;;;;;;;7.13;67.16;92456.53;5095806;28;20536;-79
2023/04/27 03:06:40;;;;;;;9.63;5.72;;;;;;;7.10;67.79;92457.06;5096230;28;20119;-79
2023/04/27 03:09:06;;;;;;;13.20;6.60;;;;;;;7.07;67.56;92447.97;5074212;28;20048;-78
2023/04/27 03:11:32;;;;;;;11.63;6.10;;;;;;;7.06;68.08;92450.84;5058690;28;20024;-78
2023/04/27 03:13:57;;;;;;;10.52;5.97;;;;;;;7.05;67.74;92449.28;5068357;28;20051;-79
2023/04/27 03:16:23;;;;;;;15.85;6.65;;;;;;;7.06;67.68;92453.44;5079194;28;20028;-78
2023/04/27 03:18:49;;;;;;;9.25;5.55;;;;;;;7.04;67.46;92447.72;5072053;28;20071;-78
2023/04/27 03:21:15;;;;;;;9.85;5.55;;;;;;;7.02;67.88;92444.59;5094484;28;20055;-78
2023/04/27 03:23:41;;;;;;;12.38;5.63;;;;;;;6.98;67.65;92444.34;5094627;28;20043;-78
2023/04/27 03:26:09;;;;;;;10.63;5.30;;;;;;;6.98;67.46;92451.38;5097168;28;20397;-78
2023/04/27 03:28:35;;;;;;;10.98;5.10;;;;;;;6.97;67.26;92444.63;5077165;28;20126;-78
2023/04/27 03:31:07;;;;;;;8.90;5.07;;;;;;;6.95;66.78;92444.09;5095186;28;20111;-79
2023/04/27 03:33:33;;;;;;;11.50;4.80;;;;;;;6.92;66.37;92450.63;5095263;28;20569;-79
2023/04/27 03:35:59;;;;;;;7.20;4.40;;;;;;;6.91;65.78;92450.88;5095678;28;20032;-79
2023/04/27 03:38:26;;;;;;;8.00;4.45;;;;;;;6.88;65.22;92450.34;5096759;28;20032;-79
2023/04/27 03:40:52;;;;;;;9.15;4.70;;;;;;;6.90;65.13;92467.53;5092495;28;20028;-78
2023/04/27 03:43:18;;;;;;;7.20;3.95;;;;;;;6.87;64.97;92459.22;5078173;28;20508;-79
2023/04/27 03:45:45;;;;;;;8.23;4.25;;;;;;;6.83;65.06;92454.81;5094973;28;20028;-79
2023/04/27 03:48:11;;;;;;;10.52;4.53;;;;;;;6.84;64.81;92453.75;5077607;28;20040;-79
2023/04/27 03:50:37;;;;;;;9.02;4.38;;;;;;;6.81;64.60;92457.66;5077691;28;20473;-78
2023/04/27 03:53:03;;;;;;;13.90;4.50;;;;;;;6.82;64.71;92458.44;5093613;28;20037;-79
2023/04/27 03:55:28;;;;;;;8.65;4.20;;;;;;;6.79;64.81;92451.94;5095123;28;20024;-79
2023/04/27 03:57:54;;;;;;;7.60;3.90;;;;;;;6.76;64.97;92456.91;5078096;28;20031;-78
2023/04/27 04:00:20;;;;;;;6.88;3.97;;;;;;;6.74;64.98;92453.78;5076568;28;20052;-79
2023/04/27 04:02:46;;;;;;;8.88;4.25;;;;;;;6.72;64.89;92459.22;5075968;28;20155;-77
2023/04/27 04:05:13;;;;;;;8.52;3.55;;;;;;;6.71;64.30;92465.50;5095208;28;20475;-78
2023/04/27 04:07:40;;;;;;;7.25;3.67;;;;;;;6.69;64.36;92462.38;5095169;28;20044;-79
2023/04/27 04:10:07;;;;;;;6.85;3.88;;;;;;;6.71;64.09;92465.50;5059457;28;20108;-79
2023/04/27 04:12:33;;;;;;;6.20;3.80;;;;;;;6.72;64.24;92461.84;5092822;28;20055;-78
2023/04/27 04:14:59;;;;;;;10.77;4.85;;;;;;;6.75;65.32;92465.72;5075347;28;20036;-78
2023/04/27 04:17:25;;;;;;;8.52;4.97;;;;;;;6.72;65.88;92468.88;5094826;28;20340;-78
2023/04/27 04:19:50;;;;;;;7.60;4.05;;;;;;;6.69;65.90;92470.16;5095388;28;20198;-79
2023/04/27 04:22:16;;;;;;;9.15;4.07;;;;;;;6.65;65.47;92471.72;5093834;28;20093;-79
2023/04/27 04:24:43;;;;;;;7.63;4.38;;;;;;;6.66;65.57;92478.47;5092934;28;20062;-78
2023/04/27 04:27:09;;;;;;;7.82;3.97;;;;;;;6.65;65.48;92482.13;5071242;28;20048;-78
2023/04/27 04:29:35;;;;;;;7.38;4.13;;;;;;;6.65;65.09;92484.75;5077693;28;20115;-78
2023/04/27 04:32:00;;;;;;;5.75;3.45;;;;;;;6.66;64.78;92483.69;5092168;28;20044;-78
2023/04/27 04:34:28;;;;;;;7.35;3.70;;;;;;;6.67;64.79;92493.84;5076012;28;20062;-77
2023/04/27 04:36:56;;;;;;;6.85;4.20;;;;;;;6.68;64.72;92492.00;5077328;28;20036;-79
2023/04/27 04:39:22;;;;;;;8.77;4.05;;;;;;;6.69;65.50;92501.38;5077231;28;20508;-79
2023/04/27 04:41:48;;;;;;;5.80;3.60;;;;;;;6.70;65.38;92502.16;5094323;28;20036;-78
2023/04/27 04:44:15;;;;;;;7.03;3.70;;;;;;;6.70;66.53;92507.38;5079782;28;20041;-78
2023/04/27 04:46:43;;;;;;;8.95;3.97;;;;;;;6.74;65.21;92511.00;5090003;28;20042;-78
2023/04/27 04:49:09;;;;;;;7.43;4.20;;;;;;;6.78;65.32;92506.84;5062211;28;20067;-79
2023/04/27 04:51:35;;;;;;;7.00;3.90;;;;;;;6.81;64.78;92508.91;5089233;28;20036;-77
2023/04/27 04:54:01;;;;;;;7.88;3.70;;;;;;;6.87;64.48;92507.88;5065255;28;20043;-78
2023/04/27 04:56:27;;;;;;;8.10;3.97;;;;;;;6.93;63.95;92513.84;5080928;28;20070;-76
2023/04/27 04:58:54;;;;;;;9.98;3.95;;;;;;;6.95;64.37;92509.94;5088944;28;20048;-78
2023/04/27 05:01:19;;;;;;;6.13;3.78;;;;;;;7.04;64.27;92513.56;5068856;28;20082;-78
2023/04/27 05:03:47;;;;;;;6.15;3.63;;;;;;;7.10;64.56;92514.34;5083433;28;20485;-78
2023/04/27 05:06:12;;;;;;;11.13;3.80;;;;;;;7.21;64.39;92528.13;5088883;28;20043;-77
2023/04/27 05:08:38;;;;;;;9.55;3.97;;;;;;;7.30;64.09;92524.72;5090514;28;20035;-79
2023/04/27 05:11:04;;;;;;;7.90;3.53;;;;;;;7.39;64.17;92513.75;5069926;28;20039;-78
2023/04/27 05:13:30;;;;;;;9.88;4.00;;;;;;;7.47;64.24;92523.63;5074983;28;20061;-78
2023/04/27 05:15:56;;;;;;;8.68;3.60;;;;;;;7.53;63.99;92527.78;5092351;28;20042;-79
2023/04/27 05:18:22;;;;;;;9.57;3.78;;;;;;;7.62;64.10;92526.16;5093866;28;20115;-78
2023/04/27 05:20:48;;;;;;;6.65;3.80;;;;;;;7.72;64.60;92525.34;5092569;28;20109;-78
2023/04/27 05:23:13;;;;;;;6.63;3.47;;;;;;;7.83;64.83;92526.84;5091858;28;20048;-78
2023/04/27 05:25:42;;;;;;;10.15;3.40;;;;;;;7.96;64.73;92528.13;5090863;28;20046;-78
2023/04/27 05:28:09;;;;;;;5.75;3.42;;;;;;;8.08;64.07;92528.59;5093146;28;20028;-78
2023/04/27 05:30:35;;;;;;;6.07;2.92;;;;;;;8.20;63.22;92523.03;5088015;28;20035;-78
2023/04/27 05:33:02;;;;;;;5.72;3.05;;;;;;;8.31;63.52;92521.16;5085434;28;20044;-78
2023/04/27 05:35:32;;;;;;;5.90;2.97;;;;;;;8.48;63.08;92521.56;5083824;28;20434;-78
2023/04/27 05:37:57;;;;;;;6.07;3.03;;;;;;;8.63;62.92;92533.75;5096028;28;20028;-78
2023/04/27 05:40:23;;;;;;;6.88;2.92;;;;;;;8.74;62.72;92534.44;5089084;28;20043;-77
2023/04/27 05:42:49;;;;;;;7.60;3.00;;;;;;;8.88;62.26;92530.16;5085821;28;20106;-77
2023/04/27 05:45:15;;;;;;;6.22;3.10;;;;;;;9.01;62.42;92530.59;5082838;28;20047;-77
2023/04/27 05:47:41;;;;;;;4.18;2.33;;;;;;;9.16;61.67;92533.84;5082165;28;20024;-77
2023/04/27 05:50:07;;;;;;;4.35;2.00;;;;;;;9.32;58.76;92531.84;5077805;28;20067;-77
2023/04/27 05:52:32;;;;;;;3.47;1.98;;;;;;;9.46;57.93;92526.75;5067283;28;20051;-77
2023/04/27 05:54:58;;;;;;;3.78;1.83;;;;;;;9.63;56.88;92533.34;5084107;28;20354;-77
2023/04/27 05:57:28;;;;;;;4.30;1.92;;;;;;;9.78;54.93;92541.81;5075588;28;20024;-77
2023/04/27 05:59:55;;;;;;;5.65;1.95;;;;;;;9.92;55.92;92541.13;5076785;28;20036;-77
2023/04/27 06:02:21;;;;;;;8.43;2.63;;;;;;;10.17;55.35;92547.88;5063532;28;20090;-77
2023/04/27 06:04:46;;;;;;;4.40;2.10;;;;;;;10.31;54.58;92548.78;5080202;28;20615;-77
2023/04/27 06:07:13;;;;;;;6.57;2.28;;;;;;;10.47;52.50;92541.50;5075196;28;20111;-77
2023/04/27 06:09:40;;;;;;;4.40;1.77;;;;;;;10.74;51.95;92545.28;5075436;28;20373;-77
2023/04/27 06:12:07;;;;;;;5.32;2.30;;;;;;;11.74;50.54;92553.56;5079959;28;20040;-76
2023/04/27 06:14:34;;;;;;;3.83;1.92;;;;;;;12.96;47.59;92551.31;5078292;28;20440;-77
2023/04/27 06:17:00;;;;;;;3.53;1.80;;;;;;;14.02;45.13;92559.47;5081438;28;20497;-77
2023/04/27 06:19:26;;;;;;;4.63;1.90;;;;;;;14.78;43.74;92552.03;5078882;28;20062;-77
2023/04/27 06:21:55;;;;;;;4.75;2.30;;;;;;;15.50;41.88;92555.06;5078145;28;20294;-77
2023/04/27 06:24:21;;;;;;;4.80;1.90;;;;;;;15.95;41.45;92562.53;5079598;28;20086;-77
2023/04/27 06:26:48;;;;;;;5.10;2.00;;;;;;;16.73;38.70;92558.69;5079123;28;20036;-77
2023/04/27 06:29:14;;;;;;;4.05;1.88;;;;;;;16.76;37.88;92552.00;5079044;28;20513;-77
2023/04/27 06:31:40;;;;;;;3.38;1.65;;;;;;;17.09;37.34;92554.72;5079431;28;20036;-77
2023/04/27 06:34:06;;;;;;;4.82;1.75;;;;;;;16.42;37.41;92559.81;5081617;28;20067;-77
2023/04/27 06:36:32;;;;;;;5.43;1.80;;;;;;;16.11;38.71;92564.66;5079817;28;20263;-76
2023/04/27 06:38:58;;;;;;;5.20;1.90;;;;;;;16.21;39.11;92565.06;5081736;28;20419;-77
2023/04/27 06:41:25;;;;;;;3.05;1.70;;;;;;;16.46;38.32;92570.53;5083908;28;20081;-77
2023/04/27 06:43:51;;;;;;;5.68;2.10;;;;;;;16.58;37.64;92567.19;5078071;28;20046;-77
2023/04/27 06:46:17;;;;;;;4.63;2.03;;;;;;;16.37;38.64;92570.59;5084493;28;20024;-77
2023/04/27 06:48:43;;;;;;;3.58;1.63;;;;;;;16.19;38.32;92572.53;5078275;28;20192;-76
2023/04/27 06:51:09;;;;;;;3.42;1.73;;;;;;;15.48;40.71;92572.28;5084559;28;20122;-77
2023/04/27 06:53:35;;;;;;;6.00;1.83;;;;;;;14.82;41.91;92585.69;5091888;28;20036;-77
2023/04/27 06:56:00;;;;;;;6.25;2.08;;;;;;;14.53;43.25;92585.16;5091646;28;20032;-77
2023/04/27 06:58:26;;;;;;;3.95;1.98;;;;;;;14.22;43.72;92595.75;5092864;28;20093;-77
2023/04/27 07:00:52;;;;;;;4.35;2.05;;;;;;;14.07;44.88;92593.53;5091254;28;20366;-77
2023/04/27 07:03:18;;;;;;;8.75;3.50;;;;;;;14.23;42.99;92597.31;5091623;28;20028;-77
2023/04/27 07:05:44;;;;;;;5.90;2.33;;;;;;;14.32;44.11;92594.69;5092507;28;20497;-77
2023/04/27 07:08:09;;;;;;;5.32;2.97;;;;;;;13.99;44.64;92599.56;5092416;28;20122;-78
2023/04/27 07:10:35;;;;;;;4.53;2.10;;;;;;;13.88;46.37;92599.03;5091989;28;20469;-76
2023/04/27 07:13:01;;;;;;;5.65;2.80;;;;;;;13.48;47.51;92602.38;5091983;28;20077;-77
2023/04/27 07:15:26;;;;;;;9.57;2.55;;;;;;;13.49;48.45;92598.69;5092719;28;20043;-76
2023/04/27 07:17:55;;;;;;;5.38;2.67;;;;;;;13.49;49.76;92600.56;5092515;28;20067;-77
2023/04/27 07:20:21;;;;;;;6.10;2.95;;;;;;;13.59;47.96;92597.66;5090337;28;20028;-76
2023/04/27 07:22:47;;;;;;;5.35;2.72;;;;;;;13.32;47.36;92604.63;5092204;28;20470;-79
2023/04/27 07:25:13;;;;;;;6.20;3.15;;;;;;;13.18;48.23;92596.00;5091304;28;20036;-77
2023/04/27 07:27:40;;;;;;;6.05;3.15;;;;;;;13.55;48.46;92604.59;5091344;28;20504;-77
2023/04/27 07:30:08;;;;;;;5.70;2.80;;;;;;;13.52;47.71;92598.09;5074350;28;20102;-76
2023/04/27 07:32:36;;;;;;;5.25;2.70;;;;;;;13.26;46.82;92600.53;5074583;28;20055;-76
2023/04/27 07:35:02;;;;;;;10.70;3.38;;;;;;;13.24;48.29;92592.19;5078982;28;20033;-77
2023/04/27 07:37:28;;;;;;;6.60;3.00;;;;;;;13.16;48.83;92600.00;5084777;28;20031;-76
2023/04/27 07:39:54;;;;;;;7.18;3.08;;;;;;;13.28;50.29;92606.31;5091542;28;20060;-76
2023/04/27 07:42:23;;;;;;;6.20;2.97;;;;;;;13.33;49.40;92602.78;5091643;28;20067;-76
2023/04/27 07:44:50;;;;;;;5.30;2.90;;;;;;;13.46;47.72;92601.91;5089886;28;20040;-78
2023/04/27 07:47:17;;;;;;;4.03;2.28;;;;;;;13.51;48.01;92607.06;5072555;28;20489;-78
2023/04/27 07:49:45;;;;;;;4.28;2.47;;;;;;;13.43;48.68;92602.53;5092073;28;20055;-78
2023/04/27 07:52:11;;;;;;;3.58;2.08;;;;;;;13.23;48.77;92603.75;5092182;28;20050;-78
2023/04/27 07:54:36;;;;;;;5.43;2.20;;;;;;;12.87;48.68;92606.41;5055592;28;20027;-78
2023/04/27 07:57:13;;;;;;;5.80;2.30;;;;;;;13.12;49.56;92613.72;5078709;28;20036;-78
2023/04/27 07:59:39;;;;;;;3.95;2.28;;;;;;;13.35;50.36;92610.34;5091256;28;20358;-77
2023/04/27 08:02:04;;;;;;;5.88;2.63;;;;;;;13.33;48.94;92611.44;5092078;28;20028;-78
2023/04/27 08:04:30;;;;;;;4.05;2.13;;;;;;;13.49;48.32;92611.06;5092552;28;20036;-78
2023/04/27 08:06:56;;;;;;;4.90;2.80;;;;;;;13.40;49.72;92608.41;5092092;28;20036;-78
2023/04/27 08:09:21;;;;;;;10.35;2.97;;;;;;;13.75;49.92;92606.72;5093236;28;20431;-78
2023/04/27 08:11:47;;;;;;;5.60;2.90;;;;;;;13.79;49.70;92611.38;5089670;28;20039;-77
2023/04/27 08:14:12;;;;;;;8.88;3.05;;;;;;;13.66;49.95;92605.91;5086706;28;20043;-77
2023/04/27 08:16:42;;;;;;;11.20;3.95;;;;;;;13.45;50.58;92607.50;5055044;28;20457;-78
2023/04/27 08:19:09;;;;;;;9.02;4.50;;;;;;;13.21;51.05;92605.13;5076578;28;20043;-78
2023/04/27 08:21:35;;;;;;;9.60;4.43;;;;;;;13.20;51.66;92603.59;5091062;28;20044;-78
2023/04/27 08:24:01;;;;;;;10.88;5.65;;;;;;;13.31;50.47;92600.44;5074082;28;20470;-78
2023/04/27 08:26:27;;;;;;;8.85;5.03;;;;;;;13.46;50.28;92612.44;5092535;28;20032;-77
2023/04/27 08:28:55;;;;;;;8.70;4.88;;;;;;;13.66;49.70;92610.38;5090850;28;20040;-78
2023/04/27 08:31:20;;;;;;;10.45;5.57;;;;;;;13.35;51.60;92613.75;5092298;28;20040;-78
2023/04/27 08:33:46;;;;;;;9.95;5.18;;;;;;;13.53;50.19;92612.81;5091073;28;20040;-78
2023/04/27 08:36:12;;;;;;;10.38;4.78;;;;;;;13.83;50.59;92615.75;5092171;28;20027;-77
2023/04/27 08:38:37;;;;;;;10.63;5.78;;;;;;;13.67;51.42;92606.69;5089268;28;20201;-78
2023/04/27 08:41:03;;;;;;;12.80;5.70;;;;;;;13.86;50.68;92603.84;5091356;28;20039;-78
2023/04/27 08:43:35;;;;;;;9.98;5.05;;;;;;;14.00;51.10;92609.00;5089304;28;20027;-78
2023/04/27 08:46:01;;;;;;;11.90;5.90;;;;;;;13.88;51.37;92607.72;5090384;28;20039;-77
2023/04/27 08:48:27;;;;;;;8.60;4.47;;;;;;;13.94;52.47;92614.41;5074813;28;20049;-78
2023/04/27 08:50:55;;;;;;;10.93;5.03;;;;;;;13.59;51.30;92604.78;5092919;28;20032;-77
2023/04/27 08:53:22;;;;;;;10.63;5.88;;;;;;;13.65;53.64;92603.59;5091239;28;20034;-77
2023/04/27 08:55:49;;;;;;;11.65;5.85;;;;;;;13.69;54.09;92609.78;5073505;28;20039;-77
2023/04/27 08:58:14;;;;;;;13.23;5.95;;;;;;;13.69;53.55;92605.31;5091756;28;20064;-78
2023/04/27 09:00:42;;;;;;;8.02;4.00;;;;;;;13.93;52.29;92612.84;5060168;28;20148;-77
2023/04/27 09:03:27;;;;;;;12.75;6.45;;;;;;;14.00;53.67;92603.72;5086883;28;20032;-77
2023/04/27 09:05:53;;;;;;;10.73;5.90;;;;;;;14.09;54.13;92610.56;5090355;28;20040;-78
2023/04/27 09:08:18;;;;;;;14.00;6.80;;;;;;;14.10;53.19;92608.75;5089174;28;20111;-78
2023/04/27 09:10:50;;;;;;;12.77;4.32;;;;;;;14.31;50.23;92609.72;5066444;28;20024;-78
2023/04/27 09:13:16;;;;;;;7.40;4.28;;;;;;;14.37;49.06;92607.75;5072223;28;20062;-77
2023/04/27 09:15:47;;;;;;;9.45;5.60;;;;;;;14.54;51.19;92612.25;5089197;28;20034;-77
2023/04/27 09:18:21;;;;;;;9.30;5.22;;;;;;;14.26;50.54;92604.59;5089072;28;20503;-77
2023/04/27 09:20:50;;;;;;;10.25;5.88;;;;;;;14.18;51.12;92599.31;5088548;28;20048;-77
2023/04/27 09:23:29;;;;;;;8.48;4.55;;;;;;;14.50;50.29;92612.09;5089359;28;20068;-77
2023/04/27 09:26:08;;;;;;;9.60;4.88;;;;;;;14.41;51.44;92613.16;5089194;28;20489;-77
2023/04/27 09:28:37;;;;;;;9.60;5.10;;;;;;;14.39;50.16;92610.84;5090328;28;20043;-77
2023/04/27 09:31:04;;;;;;;9.20;4.72;;;;;;;14.57;49.84;92619.59;5090113;28;20041;-77
2023/04/27 09:33:33;;;;;;;8.80;4.88;;;;;;;14.68;49.61;92622.69;5091666;28;20044;-77
2023/04/27 09:36:02;;;;;;;11.32;5.43;;;;;;;14.65;49.67;92618.03;5089468;28;20397;-78
2023/04/27 09:38:28;;;;;;;12.48;5.35;;;;;;;14.85;49.22;92617.44;5088555;28;20028;-77
2023/04/27 09:40:55;;;;;;;9.43;5.38;;;;;;;14.93;49.92;92613.28;5089850;28;20043;-77
2023/04/27 09:43:22;;;;;;;9.60;5.05;;;;;;;14.81;49.09;92618.38;5088633;28;20032;-77
2023/04/27 09:45:48;;;;;;;10.95;5.18;;;;;;;14.83;49.42;92616.97;5068967;28;20024;-77
2023/04/27 09:48:14;;;;;;;9.48;5.57;;;;;;;15.13;49.28;92611.88;5068554;28;20127;-77
2023/04/27 09:50:43;;;;;;;11.63;5.78;;;;;;;14.99;49.20;92612.81;5073895;28;20036;-77
2023/04/27 09:53:22;;;;;;;10.13;5.22;;;;;;;15.12;48.14;92611.09;5089991;28;20066;-77
2023/04/27 09:55:53;;;;;;;10.27;6.03;;;;;;;14.74;49.27;92610.94;5088090;28;20044;-77
2023/04/27 09:58:44;;;;;;;9.43;5.57;;;;;;;14.73;49.39;92609.38;5090288;28;20032;-77
2023/04/27 10:01:12;;;;;;;8.50;5.13;;;;;;;14.61;49.87;92604.69;5088173;28;20046;-77
2023/04/27 10:04:10;;;;;;;12.98;5.93;;;;;;;14.66;51.69;92601.94;5089978;28;20124;-78
2023/04/27 10:06:50;;;;;;;10.48;5.20;;;;;;;14.66;49.71;92609.84;5064024;28;20078;-77
2023/04/27 10:09:22;;;;;;;10.70;5.40;;;;;;;14.63;49.63;92599.91;5079834;28;20028;-77
2023/04/27 10:11:48;;;;;;;12.17;4.37;;;;;;;14.58;48.74;92600.06;5089408;28;20362;-77
2023/04/27 10:14:22;;;;;;;10.25;5.65;;;;;;;14.57;49.50;92594.00;5080818;28;20436;-77
2023/04/27 10:16:53;;;;;;;7.75;4.10;;;;;;;14.75;48.62;92608.00;5089230;28;20115;-76
2023/04/27 10:19:20;;;;;;;7.70;4.55;;;;;;;14.90;49.13;92598.84;5090976;28;20109;-77
2023/04/27 10:21:55;;;;;;;10.18;5.43;;;;;;;15.13;48.55;92606.59;5076190;28;20059;-77
2023/04/27 10:24:50;;;;;;;13.35;6.00;;;;;;;15.08;48.65;92596.97;5092714;28;20036;-77
2023/04/27 10:27:21;;;;;;;9.82;5.72;;;;;;;14.99;48.95;92596.22;5067519;28;20070;-75
2023/04/27 10:29:48;;;;;;;9.98;5.57;;;;;;;15.13;49.84;92596.84;5082666;28;20399;-77
2023/04/27 10:32:25;;;;;;;11.45;5.13;;;;;;;15.13;49.48;92591.56;5094732;28;20040;-77
2023/04/27 10:35:02;;;;;;;6.95;4.20;;;;;;;14.97;49.55;92593.09;5091446;28;20535;-77
2023/04/27 10:37:42;;;;;;;10.30;5.78;;;;;;;14.93;50.14;92608.00;5094086;28;20491;-78
2023/04/27 10:40:09;;;;;;;6.00;3.55;;;;;;;14.74;48.55;92609.06;5075971;28;20039;-77
2023/04/27 10:42:35;;;;;;;7.78;4.90;;;;;;;14.69;50.26;92603.19;5089140;28;20567;-77
2023/04/27 10:45:01;;;;;;;9.25;5.28;;;;;;;14.81;50.48;92605.19;5090888;28;20032;-76
2023/04/27 10:47:39;;;;;;;9.18;4.93;;;;;;;14.80;49.88;92609.69;5090109;28;20527;-77
2023/04/27 10:50:10;;;;;;;11.45;5.50;;;;;;;14.71;50.64;92612.31;5091117;28;20063;-77
2023/04/27 10:52:40;;;;;;;8.48;5.28;;;;;;;15.10;49.64;92608.00;5075528;28;20044;-77
2023/04/27 10:55:17;;;;;;;15.45;6.03;;;;;;;15.56;48.22;92597.88;5092407;28;20047;-77
2023/04/27 10:57:50;;;;;;;10.95;5.07;;;;;;;15.38;49.05;92597.13;5092196;28;20064;-77
2023/04/27 11:00:27;;;;;;;9.00;5.15;;;;;;;15.20;47.82;92599.00;5075888;28;20036;-77
2023/04/27 11:02:55;;;;;;;8.00;4.78;;;;;;;15.20;47.67;92601.66;5091058;28;20039;-77
2023/04/27 11:05:28;;;;;;;11.13;5.47;;;;;;;15.17;49.29;92603.03;5057726;28;20029;-77
2023/04/27 11:08:20;;;;;;;11.77;6.40;;;;;;;15.70;47.70;92592.41;5087567;28;20035;-77
2023/04/27 11:10:48;;;;;;;9.52;5.53;;;;;;;15.63;47.84;92598.16;5073110;28;20575;-77
2023/04/27 11:13:16;;;;;;;8.60;4.60;;;;;;;15.64;48.55;92599.72;5091622;28;20117;-77
2023/04/27 11:15:53;;;;;;;11.45;4.93;;;;;;;15.73;46.85;92600.50;5091987;28;20039;-77
2023/04/27 11:18:22;;;;;;;10.25;5.18;;;;;;;15.93;48.59;92596.41;5093136;28;20047;-76
2023/04/27 11:20:50;;;;;;;12.25;5.30;;;;;;;15.87;46.43;92581.81;5092946;28;20135;-77
2023/04/27 11:23:27;;;;;;;9.02;4.57;;;;;;;15.43;48.21;92583.00;5090730;28;20149;-77
2023/04/27 11:25:54;;;;;;;8.02;4.95;;;;;;;15.35;47.33;92582.69;5091436;28;20439;-77
2023/04/27 11:28:21;;;;;;;6.65;3.47;;;;;;;15.58;47.05;92587.75;5089579;28;20279;-76
2023/04/27 11:30:54;;;;;;;10.30;5.25;;;;;;;15.54;47.26;92577.09;5092591;28;20454;-77
2023/04/27 11:33:21;;;;;;;8.32;4.78;;;;;;;15.81;46.87;92596.28;5090516;28;20086;-76
2023/04/27 11:35:47;;;;;;;8.65;4.82;;;;;;;15.89;47.13;92590.19;5088808;28;20043;-76
2023/04/27 11:38:17;;;;;;;6.45;3.92;;;;;;;15.95;45.71;92593.44;5087187;28;20032;-76